METAR Data
IDs: Format: Raw Decoded Include TAF

Data at: 2053 UTC 23 Oct 2021

LDZA 232030Z VRB01KT CAVOK 08/06 Q1031 NOSIG